sensor_id;sensor_type;location;lat;lon;timestamp;P1;durP1;ratioP1;P2;durP2;ratioP2
48853;SDS011;34673;52.808;17.856;2023-04-24T00:01:35;18.98;;;15.00;;
48853;SDS011;34673;52.808;17.856;2023-04-24T00:04:03;21.52;;;14.27;;
48853;SDS011;34673;52.808;17.856;2023-04-24T00:06:31;20.70;;;14.32;;
48853;SDS011;34673;52.808;17.856;2023-04-24T00:09:01;18.83;;;14.23;;
48853;SDS011;34673;52.808;17.856;2023-04-24T00:11:29;21.70;;;15.43;;
48853;SDS011;34673;52.808;17.856;2023-04-24T00:13:56;20.48;;;14.63;;
48853;SDS011;34673;52.808;17.856;2023-04-24T00:16:23;21.42;;;15.68;;
48853;SDS011;34673;52.808;17.856;2023-04-24T00:18:51;23.75;;;15.68;;
48853;SDS011;34673;52.808;17.856;2023-04-24T00:21:22;20.17;;;14.38;;
48853;SDS011;34673;52.808;17.856;2023-04-24T00:23:52;23.52;;;15.70;;
48853;SDS011;34673;52.808;17.856;2023-04-24T00:26:19;19.63;;;15.18;;
48853;SDS011;34673;52.808;17.856;2023-04-24T00:28:47;22.48;;;15.43;;
48853;SDS011;34673;52.808;17.856;2023-04-24T00:31:14;20.52;;;14.60;;
48853;SDS011;34673;52.808;17.856;2023-04-24T00:33:41;21.67;;;16.08;;
48853;SDS011;34673;52.808;17.856;2023-04-24T00:36:08;23.92;;;15.75;;
48853;SDS011;34673;52.808;17.856;2023-04-24T00:38:36;21.75;;;16.00;;
48853;SDS011;34673;52.808;17.856;2023-04-24T00:41:03;23.83;;;16.00;;
48853;SDS011;34673;52.808;17.856;2023-04-24T00:43:31;23.67;;;15.98;;
48853;SDS011;34673;52.808;17.856;2023-04-24T00:45:58;22.48;;;14.65;;
48853;SDS011;34673;52.808;17.856;2023-04-24T00:48:27;21.60;;;16.27;;
48853;SDS011;34673;52.808;17.856;2023-04-24T00:50:55;25.30;;;15.98;;
48853;SDS011;34673;52.808;17.856;2023-04-24T00:53:22;25.45;;;16.52;;
48853;SDS011;34673;52.808;17.856;2023-04-24T00:55:49;26.85;;;17.23;;
48853;SDS011;34673;52.808;17.856;2023-04-24T00:58:17;23.55;;;16.90;;
48853;SDS011;34673;52.808;17.856;2023-04-24T01:00:45;27.00;;;15.95;;
48853;SDS011;34673;52.808;17.856;2023-04-24T01:03:12;25.45;;;16.50;;
48853;SDS011;34673;52.808;17.856;2023-04-24T01:05:41;23.88;;;16.20;;
48853;SDS011;34673;52.808;17.856;2023-04-24T01:08:08;23.02;;;15.55;;
48853;SDS011;34673;52.808;17.856;2023-04-24T01:10:36;24.65;;;15.68;;
48853;SDS011;34673;52.808;17.856;2023-04-24T01:13:05;22.05;;;15.88;;
48853;SDS011;34673;52.808;17.856;2023-04-24T01:15:35;23.25;;;15.52;;
48853;SDS011;34673;52.808;17.856;2023-04-24T01:18:02;25.95;;;15.90;;
48853;SDS011;34673;52.808;17.856;2023-04-24T01:20:30;24.83;;;16.67;;
48853;SDS011;34673;52.808;17.856;2023-04-24T01:22:58;24.73;;;17.50;;
48853;SDS011;34673;52.808;17.856;2023-04-24T01:25:27;22.42;;;15.25;;
48853;SDS011;34673;52.808;17.856;2023-04-24T01:27:56;23.05;;;15.68;;
48853;SDS011;34673;52.808;17.856;2023-04-24T01:30:23;27.15;;;17.17;;
48853;SDS011;34673;52.808;17.856;2023-04-24T01:32:51;25.75;;;16.33;;
48853;SDS011;34673;52.808;17.856;2023-04-24T01:35:19;24.13;;;15.40;;
48853;SDS011;34673;52.808;17.856;2023-04-24T01:37:46;25.77;;;17.23;;
48853;SDS011;34673;52.808;17.856;2023-04-24T01:40:13;25.42;;;16.70;;
48853;SDS011;34673;52.808;17.856;2023-04-24T01:42:41;27.00;;;16.38;;
48853;SDS011;34673;52.808;17.856;2023-04-24T01:45:10;24.23;;;15.95;;
48853;SDS011;34673;52.808;17.856;2023-04-24T01:47:38;22.85;;;15.63;;
48853;SDS011;34673;52.808;17.856;2023-04-24T01:50:06;24.17;;;16.30;;
48853;SDS011;34673;52.808;17.856;2023-04-24T01:52:34;24.65;;;16.00;;
48853;SDS011;34673;52.808;17.856;2023-04-24T01:55:03;23.25;;;15.05;;
48853;SDS011;34673;52.808;17.856;2023-04-24T01:57:31;22.10;;;15.60;;
48853;SDS011;34673;52.808;17.856;2023-04-24T01:59:58;27.48;;;15.88;;
48853;SDS011;34673;52.808;17.856;2023-04-24T02:02:27;22.52;;;15.60;;
48853;SDS011;34673;52.808;17.856;2023-04-24T02:04:56;27.95;;;15.93;;
48853;SDS011;34673;52.808;17.856;2023-04-24T02:07:23;23.23;;;15.80;;
48853;SDS011;34673;52.808;17.856;2023-04-24T02:09:51;25.20;;;15.75;;
48853;SDS011;34673;52.808;17.856;2023-04-24T02:12:18;26.95;;;17.27;;
48853;SDS011;34673;52.808;17.856;2023-04-24T02:14:45;29.27;;;17.20;;
48853;SDS011;34673;52.808;17.856;2023-04-24T02:17:12;27.58;;;16.15;;
48853;SDS011;34673;52.808;17.856;2023-04-24T02:19:40;26.33;;;15.75;;
48853;SDS011;34673;52.808;17.856;2023-04-24T02:22:09;22.42;;;14.40;;
48853;SDS011;34673;52.808;17.856;2023-04-24T02:24:37;23.67;;;14.70;;
48853;SDS011;34673;52.808;17.856;2023-04-24T02:27:05;22.98;;;14.85;;
48853;SDS011;34673;52.808;17.856;2023-04-24T02:29:33;19.27;;;12.98;;
48853;SDS011;34673;52.808;17.856;2023-04-24T02:32:00;20.77;;;14.85;;
48853;SDS011;34673;52.808;17.856;2023-04-24T02:34:27;22.73;;;13.90;;
48853;SDS011;34673;52.808;17.856;2023-04-24T02:36:54;21.25;;;13.57;;
48853;SDS011;34673;52.808;17.856;2023-04-24T02:39:21;22.88;;;14.68;;
48853;SDS011;34673;52.808;17.856;2023-04-24T02:41:49;24.17;;;14.75;;
48853;SDS011;34673;52.808;17.856;2023-04-24T02:44:16;21.52;;;14.45;;
48853;SDS011;34673;52.808;17.856;2023-04-24T02:46:43;22.30;;;13.93;;
48853;SDS011;34673;52.808;17.856;2023-04-24T02:49:11;21.35;;;13.30;;
48853;SDS011;34673;52.808;17.856;2023-04-24T02:51:39;20.75;;;13.45;;
48853;SDS011;34673;52.808;17.856;2023-04-24T02:54:08;21.50;;;13.80;;
48853;SDS011;34673;52.808;17.856;2023-04-24T02:56:36;22.95;;;14.13;;
48853;SDS011;34673;52.808;17.856;2023-04-24T02:59:05;20.58;;;13.88;;
48853;SDS011;34673;52.808;17.856;2023-04-24T03:01:33;20.58;;;13.80;;
48853;SDS011;34673;52.808;17.856;2023-04-24T03:04:00;21.88;;;13.75;;
48853;SDS011;34673;52.808;17.856;2023-04-24T03:06:27;18.80;;;12.52;;
48853;SDS011;34673;52.808;17.856;2023-04-24T03:08:55;19.17;;;13.00;;
48853;SDS011;34673;52.808;17.856;2023-04-24T03:11:22;20.20;;;13.25;;
48853;SDS011;34673;52.808;17.856;2023-04-24T03:13:49;23.83;;;16.60;;
48853;SDS011;34673;52.808;17.856;2023-04-24T03:16:16;21.83;;;13.98;;
48853;SDS011;34673;52.808;17.856;2023-04-24T03:18:43;22.98;;;13.77;;
48853;SDS011;34673;52.808;17.856;2023-04-24T03:21:11;20.98;;;13.20;;
48853;SDS011;34673;52.808;17.856;2023-04-24T03:23:40;18.15;;;12.38;;
48853;SDS011;34673;52.808;17.856;2023-04-24T03:26:08;20.70;;;13.00;;
48853;SDS011;34673;52.808;17.856;2023-04-24T03:28:41;17.25;;;12.55;;
48853;SDS011;34673;52.808;17.856;2023-04-24T03:31:09;18.92;;;13.52;;
48853;SDS011;34673;52.808;17.856;2023-04-24T03:33:37;19.10;;;13.30;;
48853;SDS011;34673;52.808;17.856;2023-04-24T03:36:05;21.02;;;12.55;;
48853;SDS011;34673;52.808;17.856;2023-04-24T03:38:37;18.13;;;13.00;;
48853;SDS011;34673;52.808;17.856;2023-04-24T03:41:29;16.70;;;12.15;;
48853;SDS011;34673;52.808;17.856;2023-04-24T03:44:10;14.65;;;11.00;;
48853;SDS011;34673;52.808;17.856;2023-04-24T03:46:37;19.05;;;12.80;;
48853;SDS011;34673;52.808;17.856;2023-04-24T03:49:05;19.33;;;13.70;;
48853;SDS011;34673;52.808;17.856;2023-04-24T03:54:23;18.17;;;12.57;;
48853;SDS011;34673;52.808;17.856;2023-04-24T03:56:52;18.83;;;13.68;;
48853;SDS011;34673;52.808;17.856;2023-04-24T03:59:19;18.27;;;13.13;;
48853;SDS011;34673;52.808;17.856;2023-04-24T04:01:57;17.27;;;12.80;;
48853;SDS011;34673;52.808;17.856;2023-04-24T04:04:24;19.08;;;13.13;;
48853;SDS011;34673;52.808;17.856;2023-04-24T04:06:52;21.10;;;13.70;;
48853;SDS011;34673;52.808;17.856;2023-04-24T04:09:20;23.58;;;15.25;;
48853;SDS011;34673;52.808;17.856;2023-04-24T04:11:48;20.35;;;14.25;;
48853;SDS011;34673;52.808;17.856;2023-04-24T04:14:15;23.95;;;14.02;;
48853;SDS011;34673;52.808;17.856;2023-04-24T04:16:46;18.38;;;13.60;;
48853;SDS011;34673;52.808;17.856;2023-04-24T04:19:13;16.63;;;11.60;;
48853;SDS011;34673;52.808;17.856;2023-04-24T04:21:41;19.10;;;12.57;;
48853;SDS011;34673;52.808;17.856;2023-04-24T04:24:16;19.15;;;12.13;;
48853;SDS011;34673;52.808;17.856;2023-04-24T04:26:44;19.38;;;11.95;;
48853;SDS011;34673;52.808;17.856;2023-04-24T04:29:27;19.23;;;12.18;;
48853;SDS011;34673;52.808;17.856;2023-04-24T04:31:54;18.25;;;12.52;;
48853;SDS011;34673;52.808;17.856;2023-04-24T04:34:22;16.80;;;11.85;;
48853;SDS011;34673;52.808;17.856;2023-04-24T04:36:50;21.20;;;14.00;;
48853;SDS011;34673;52.808;17.856;2023-04-24T04:39:31;14.82;;;11.45;;
48853;SDS011;34673;52.808;17.856;2023-04-24T04:42:01;18.73;;;11.88;;
48853;SDS011;34673;52.808;17.856;2023-04-24T04:44:35;19.17;;;13.13;;
48853;SDS011;34673;52.808;17.856;2023-04-24T04:47:04;18.38;;;13.18;;
48853;SDS011;34673;52.808;17.856;2023-04-24T04:49:34;20.83;;;13.02;;
48853;SDS011;34673;52.808;17.856;2023-04-24T04:52:03;20.55;;;13.27;;
48853;SDS011;34673;52.808;17.856;2023-04-24T04:54:31;20.92;;;13.43;;
48853;SDS011;34673;52.808;17.856;2023-04-24T04:56:58;20.02;;;12.82;;
48853;SDS011;34673;52.808;17.856;2023-04-24T04:59:30;20.58;;;13.90;;
48853;SDS011;34673;52.808;17.856;2023-04-24T05:02:02;22.05;;;14.10;;
48853;SDS011;34673;52.808;17.856;2023-04-24T05:04:30;19.83;;;13.93;;
48853;SDS011;34673;52.808;17.856;2023-04-24T05:06:58;19.85;;;13.77;;
48853;SDS011;34673;52.808;17.856;2023-04-24T05:12:00;22.48;;;13.30;;
48853;SDS011;34673;52.808;17.856;2023-04-24T05:14:33;20.77;;;12.82;;
48853;SDS011;34673;52.808;17.856;2023-04-24T05:17:00;21.80;;;13.05;;
48853;SDS011;34673;52.808;17.856;2023-04-24T05:19:29;19.15;;;13.23;;
48853;SDS011;34673;52.808;17.856;2023-04-24T05:21:56;21.58;;;13.00;;
48853;SDS011;34673;52.808;17.856;2023-04-24T05:24:23;18.58;;;12.23;;
48853;SDS011;34673;52.808;17.856;2023-04-24T05:27:12;19.92;;;13.02;;
48853;SDS011;34673;52.808;17.856;2023-04-24T05:29:40;19.27;;;12.93;;
48853;SDS011;34673;52.808;17.856;2023-04-24T05:32:08;20.17;;;12.63;;
48853;SDS011;34673;52.808;17.856;2023-04-24T05:34:35;16.30;;;11.77;;
48853;SDS011;34673;52.808;17.856;2023-04-24T05:37:03;17.85;;;12.02;;
48853;SDS011;34673;52.808;17.856;2023-04-24T05:39:34;16.95;;;11.30;;
48853;SDS011;34673;52.808;17.856;2023-04-24T05:42:02;17.50;;;11.55;;
48853;SDS011;34673;52.808;17.856;2023-04-24T05:44:31;15.18;;;10.98;;
48853;SDS011;34673;52.808;17.856;2023-04-24T05:46:58;17.23;;;11.85;;
48853;SDS011;34673;52.808;17.856;2023-04-24T05:49:25;16.27;;;11.55;;
48853;SDS011;34673;52.808;17.856;2023-04-24T05:51:53;15.93;;;10.90;;
48853;SDS011;34673;52.808;17.856;2023-04-24T05:54:21;18.55;;;11.98;;
48853;SDS011;34673;52.808;17.856;2023-04-24T05:56:48;18.05;;;12.15;;
48853;SDS011;34673;52.808;17.856;2023-04-24T05:59:26;16.98;;;11.70;;
48853;SDS011;34673;52.808;17.856;2023-04-24T06:01:53;17.83;;;11.40;;
48853;SDS011;34673;52.808;17.856;2023-04-24T06:04:22;17.85;;;11.60;;
48853;SDS011;34673;52.808;17.856;2023-04-24T06:06:51;18.63;;;12.60;;
48853;SDS011;34673;52.808;17.856;2023-04-24T06:09:23;20.92;;;13.18;;
48853;SDS011;34673;52.808;17.856;2023-04-24T06:11:50;18.63;;;13.15;;
48853;SDS011;34673;52.808;17.856;2023-04-24T06:14:24;20.85;;;12.68;;
48853;SDS011;34673;52.808;17.856;2023-04-24T06:17:12;18.50;;;12.05;;
48853;SDS011;34673;52.808;17.856;2023-04-24T06:19:40;17.58;;;12.05;;
48853;SDS011;34673;52.808;17.856;2023-04-24T06:22:07;17.20;;;11.90;;
48853;SDS011;34673;52.808;17.856;2023-04-24T06:24:36;16.88;;;12.20;;
48853;SDS011;34673;52.808;17.856;2023-04-24T06:27:03;17.58;;;12.68;;
48853;SDS011;34673;52.808;17.856;2023-04-24T06:29:32;16.92;;;12.43;;
48853;SDS011;34673;52.808;17.856;2023-04-24T06:32:00;21.55;;;13.10;;
48853;SDS011;34673;52.808;17.856;2023-04-24T06:34:27;19.58;;;12.48;;
48853;SDS011;34673;52.808;17.856;2023-04-24T06:36:55;17.08;;;12.77;;
48853;SDS011;34673;52.808;17.856;2023-04-24T06:39:22;17.20;;;12.35;;
48853;SDS011;34673;52.808;17.856;2023-04-24T06:41:49;17.52;;;12.77;;
48853;SDS011;34673;52.808;17.856;2023-04-24T06:44:20;20.35;;;13.25;;
48853;SDS011;34673;52.808;17.856;2023-04-24T06:46:48;18.27;;;12.85;;
48853;SDS011;34673;52.808;17.856;2023-04-24T06:49:15;20.08;;;13.20;;
48853;SDS011;34673;52.808;17.856;2023-04-24T06:51:42;16.58;;;11.55;;
48853;SDS011;34673;52.808;17.856;2023-04-24T06:54:09;17.30;;;12.30;;
48853;SDS011;34673;52.808;17.856;2023-04-24T06:56:36;17.33;;;11.70;;
48853;SDS011;34673;52.808;17.856;2023-04-24T06:59:04;15.35;;;11.38;;
48853;SDS011;34673;52.808;17.856;2023-04-24T07:01:31;18.25;;;10.15;;
48853;SDS011;34673;52.808;17.856;2023-04-24T07:03:58;18.20;;;10.38;;
48853;SDS011;34673;52.808;17.856;2023-04-24T07:06:26;15.40;;;9.68;;
48853;SDS011;34673;52.808;17.856;2023-04-24T07:08:53;13.13;;;9.48;;
48853;SDS011;34673;52.808;17.856;2023-04-24T07:11:23;13.68;;;8.10;;
48853;SDS011;34673;52.808;17.856;2023-04-24T07:13:50;12.38;;;8.73;;
48853;SDS011;34673;52.808;17.856;2023-04-24T07:16:17;12.57;;;8.25;;
48853;SDS011;34673;52.808;17.856;2023-04-24T07:18:44;15.48;;;7.82;;
48853;SDS011;34673;52.808;17.856;2023-04-24T07:21:12;14.20;;;8.05;;
48853;SDS011;34673;52.808;17.856;2023-04-24T07:23:39;10.07;;;7.10;;
48853;SDS011;34673;52.808;17.856;2023-04-24T07:26:07;10.60;;;7.45;;
48853;SDS011;34673;52.808;17.856;2023-04-24T07:28:35;12.07;;;7.15;;
48853;SDS011;34673;52.808;17.856;2023-04-24T07:31:02;9.25;;;7.13;;
48853;SDS011;34673;52.808;17.856;2023-04-24T07:33:29;12.13;;;7.22;;
48853;SDS011;34673;52.808;17.856;2023-04-24T07:35:57;11.65;;;6.93;;
48853;SDS011;34673;52.808;17.856;2023-04-24T07:38:24;11.57;;;6.65;;
48853;SDS011;34673;52.808;17.856;2023-04-24T07:40:52;10.75;;;6.53;;
48853;SDS011;34673;52.808;17.856;2023-04-24T07:43:19;10.90;;;6.30;;
48853;SDS011;34673;52.808;17.856;2023-04-24T07:45:47;9.95;;;6.30;;
48853;SDS011;34673;52.808;17.856;2023-04-24T07:48:15;9.20;;;5.88;;
48853;SDS011;34673;52.808;17.856;2023-04-24T07:50:43;8.98;;;5.72;;
48853;SDS011;34673;52.808;17.856;2023-04-24T07:53:11;8.88;;;6.00;;
48853;SDS011;34673;52.808;17.856;2023-04-24T07:55:38;8.93;;;5.78;;
48853;SDS011;34673;52.808;17.856;2023-04-24T07:58:05;10.13;;;5.82;;
48853;SDS011;34673;52.808;17.856;2023-04-24T08:00:32;6.80;;;4.93;;
48853;SDS011;34673;52.808;17.856;2023-04-24T08:02:59;8.00;;;5.10;;
48853;SDS011;34673;52.808;17.856;2023-04-24T08:05:27;8.38;;;5.30;;
48853;SDS011;34673;52.808;17.856;2023-04-24T08:07:55;9.05;;;5.20;;
48853;SDS011;34673;52.808;17.856;2023-04-24T08:10:23;7.65;;;5.18;;
48853;SDS011;34673;52.808;17.856;2023-04-24T08:12:50;6.85;;;5.07;;
48853;SDS011;34673;52.808;17.856;2023-04-24T08:15:18;10.73;;;5.32;;
48853;SDS011;34673;52.808;17.856;2023-04-24T08:17:45;9.85;;;4.85;;
48853;SDS011;34673;52.808;17.856;2023-04-24T08:20:12;8.13;;;4.70;;
48853;SDS011;34673;52.808;17.856;2023-04-24T08:22:42;7.85;;;4.97;;
48853;SDS011;34673;52.808;17.856;2023-04-24T08:25:10;8.80;;;4.75;;
48853;SDS011;34673;52.808;17.856;2023-04-24T08:27:38;6.70;;;4.50;;
48853;SDS011;34673;52.808;17.856;2023-04-24T08:30:06;7.70;;;4.90;;
48853;SDS011;34673;52.808;17.856;2023-04-24T08:32:34;8.07;;;4.78;;
48853;SDS011;34673;52.808;17.856;2023-04-24T08:35:01;10.02;;;4.80;;
48853;SDS011;34673;52.808;17.856;2023-04-24T08:37:28;7.55;;;4.53;;
48853;SDS011;34673;52.808;17.856;2023-04-24T08:39:56;9.57;;;4.93;;
48853;SDS011;34673;52.808;17.856;2023-04-24T08:42:23;10.02;;;5.15;;
48853;SDS011;34673;52.808;17.856;2023-04-24T08:44:51;7.82;;;4.43;;
48853;SDS011;34673;52.808;17.856;2023-04-24T08:47:18;8.00;;;4.85;;
48853;SDS011;34673;52.808;17.856;2023-04-24T08:49:47;10.13;;;5.22;;
48853;SDS011;34673;52.808;17.856;2023-04-24T08:52:16;7.35;;;5.22;;
48853;SDS011;34673;52.808;17.856;2023-04-24T08:54:46;7.85;;;5.45;;
48853;SDS011;34673;52.808;17.856;2023-04-24T08:57:14;7.47;;;4.88;;
48853;SDS011;34673;52.808;17.856;2023-04-24T08:59:42;7.68;;;5.00;;
48853;SDS011;34673;52.808;17.856;2023-04-24T09:02:10;8.20;;;4.72;;
48853;SDS011;34673;52.808;17.856;2023-04-24T09:04:38;8.90;;;4.80;;
48853;SDS011;34673;52.808;17.856;2023-04-24T09:07:07;8.55;;;4.72;;
48853;SDS011;34673;52.808;17.856;2023-04-24T09:09:37;8.25;;;4.70;;
48853;SDS011;34673;52.808;17.856;2023-04-24T09:12:05;7.85;;;4.90;;
48853;SDS011;34673;52.808;17.856;2023-04-24T09:14:33;10.25;;;5.30;;
48853;SDS011;34673;52.808;17.856;2023-04-24T09:17:02;10.57;;;4.65;;
48853;SDS011;34673;52.808;17.856;2023-04-24T09:19:30;7.68;;;4.65;;
48853;SDS011;34673;52.808;17.856;2023-04-24T09:21:57;9.30;;;4.60;;
48853;SDS011;34673;52.808;17.856;2023-04-24T09:24:24;9.57;;;5.53;;
48853;SDS011;34673;52.808;17.856;2023-04-24T09:26:58;9.23;;;5.18;;
48853;SDS011;34673;52.808;17.856;2023-04-24T09:29:25;8.38;;;5.30;;
48853;SDS011;34673;52.808;17.856;2023-04-24T09:31:52;9.55;;;5.30;;
48853;SDS011;34673;52.808;17.856;2023-04-24T09:34:23;8.50;;;5.50;;
48853;SDS011;34673;52.808;17.856;2023-04-24T09:36:52;9.07;;;5.60;;
48853;SDS011;34673;52.808;17.856;2023-04-24T09:39:21;9.70;;;5.20;;
48853;SDS011;34673;52.808;17.856;2023-04-24T09:44:21;8.07;;;4.93;;
48853;SDS011;34673;52.808;17.856;2023-04-24T09:46:51;7.57;;;5.25;;
48853;SDS011;34673;52.808;17.856;2023-04-24T09:51:49;8.45;;;5.40;;
48853;SDS011;34673;52.808;17.856;2023-04-24T09:54:17;9.98;;;5.35;;
48853;SDS011;34673;52.808;17.856;2023-04-24T09:56:49;7.60;;;5.30;;
48853;SDS011;34673;52.808;17.856;2023-04-24T09:59:18;6.70;;;5.57;;
48853;SDS011;34673;52.808;17.856;2023-04-24T10:01:46;11.18;;;5.20;;
48853;SDS011;34673;52.808;17.856;2023-04-24T10:04:17;8.50;;;5.18;;
48853;SDS011;34673;52.808;17.856;2023-04-24T10:06:48;6.80;;;4.90;;
48853;SDS011;34673;52.808;17.856;2023-04-24T10:09:20;9.63;;;6.30;;
48853;SDS011;34673;52.808;17.856;2023-04-24T10:11:50;7.15;;;4.93;;
48853;SDS011;34673;52.808;17.856;2023-04-24T10:14:19;9.40;;;5.33;;
48853;SDS011;34673;52.808;17.856;2023-04-24T10:16:48;11.02;;;5.95;;
48853;SDS011;34673;52.808;17.856;2023-04-24T10:19:17;7.07;;;5.03;;
48853;SDS011;34673;52.808;17.856;2023-04-24T10:21:47;9.68;;;5.78;;
48853;SDS011;34673;52.808;17.856;2023-04-24T10:24:15;8.50;;;5.68;;
48853;SDS011;34673;52.808;17.856;2023-04-24T10:26:44;7.55;;;5.47;;
48853;SDS011;34673;52.808;17.856;2023-04-24T10:29:13;7.40;;;5.25;;
48853;SDS011;34673;52.808;17.856;2023-04-24T10:31:42;8.38;;;5.32;;
48853;SDS011;34673;52.808;17.856;2023-04-24T10:34:12;8.18;;;4.75;;
48853;SDS011;34673;52.808;17.856;2023-04-24T10:36:43;9.45;;;5.00;;
48853;SDS011;34673;52.808;17.856;2023-04-24T10:39:14;7.10;;;4.70;;
48853;SDS011;34673;52.808;17.856;2023-04-24T10:41:43;7.40;;;5.15;;
48853;SDS011;34673;52.808;17.856;2023-04-24T10:44:12;9.77;;;5.70;;
48853;SDS011;34673;52.808;17.856;2023-04-24T10:46:45;8.00;;;6.32;;
48853;SDS011;34673;52.808;17.856;2023-04-24T10:49:14;10.20;;;6.18;;
48853;SDS011;34673;52.808;17.856;2023-04-24T10:51:46;6.88;;;5.55;;
48853;SDS011;34673;52.808;17.856;2023-04-24T10:54:29;8.48;;;5.53;;
48853;SDS011;34673;52.808;17.856;2023-04-24T10:57:34;7.32;;;5.40;;
48853;SDS011;34673;52.808;17.856;2023-04-24T11:00:19;8.32;;;5.55;;
48853;SDS011;34673;52.808;17.856;2023-04-24T11:05:17;9.30;;;6.13;;
48853;SDS011;34673;52.808;17.856;2023-04-24T11:10:46;8.73;;;5.93;;
48853;SDS011;34673;52.808;17.856;2023-04-24T11:13:16;8.25;;;5.45;;
48853;SDS011;34673;52.808;17.856;2023-04-24T11:18:56;9.82;;;5.40;;
48853;SDS011;34673;52.808;17.856;2023-04-24T11:21:54;7.60;;;5.10;;
48853;SDS011;34673;52.808;17.856;2023-04-24T11:26:54;8.10;;;6.03;;
48853;SDS011;34673;52.808;17.856;2023-04-24T11:29:23;9.02;;;5.85;;
48853;SDS011;34673;52.808;17.856;2023-04-24T11:32:15;8.18;;;5.50;;
48853;SDS011;34673;52.808;17.856;2023-04-24T11:34:47;8.20;;;5.28;;
48853;SDS011;34673;52.808;17.856;2023-04-24T11:37:16;7.35;;;4.85;;
48853;SDS011;34673;52.808;17.856;2023-04-24T11:39:43;6.93;;;4.72;;
48853;SDS011;34673;52.808;17.856;2023-04-24T11:42:10;7.20;;;5.15;;
48853;SDS011;34673;52.808;17.856;2023-04-24T11:44:41;7.00;;;5.22;;
48853;SDS011;34673;52.808;17.856;2023-04-24T11:47:09;9.48;;;6.45;;
48853;SDS011;34673;52.808;17.856;2023-04-24T11:49:36;9.05;;;5.88;;
48853;SDS011;34673;52.808;17.856;2023-04-24T11:52:04;12.65;;;6.85;;
48853;SDS011;34673;52.808;17.856;2023-04-24T11:54:31;8.90;;;6.32;;
48853;SDS011;34673;52.808;17.856;2023-04-24T11:56:59;11.68;;;7.50;;
48853;SDS011;34673;52.808;17.856;2023-04-24T11:59:35;9.52;;;6.82;;
48853;SDS011;34673;52.808;17.856;2023-04-24T12:02:03;8.15;;;6.70;;
48853;SDS011;34673;52.808;17.856;2023-04-24T12:04:39;9.77;;;7.28;;
48853;SDS011;34673;52.808;17.856;2023-04-24T12:07:08;10.15;;;7.22;;
48853;SDS011;34673;52.808;17.856;2023-04-24T12:09:45;12.80;;;8.20;;
48853;SDS011;34673;52.808;17.856;2023-04-24T12:12:24;12.75;;;7.80;;
48853;SDS011;34673;52.808;17.856;2023-04-24T12:14:53;12.45;;;8.25;;
48853;SDS011;34673;52.808;17.856;2023-04-24T12:17:29;12.05;;;7.95;;
48853;SDS011;34673;52.808;17.856;2023-04-24T12:19:58;10.90;;;7.28;;
48853;SDS011;34673;52.808;17.856;2023-04-24T12:22:46;9.02;;;6.43;;
48853;SDS011;34673;52.808;17.856;2023-04-24T12:25:18;10.02;;;6.80;;
48853;SDS011;34673;52.808;17.856;2023-04-24T12:27:46;9.77;;;6.78;;
48853;SDS011;34673;52.808;17.856;2023-04-24T12:30:19;9.63;;;6.70;;
48853;SDS011;34673;52.808;17.856;2023-04-24T12:32:47;9.98;;;6.65;;
48853;SDS011;34673;52.808;17.856;2023-04-24T12:35:19;8.30;;;6.18;;
48853;SDS011;34673;52.808;17.856;2023-04-24T12:37:47;10.10;;;6.72;;
48853;SDS011;34673;52.808;17.856;2023-04-24T12:40:14;8.82;;;6.60;;
48853;SDS011;34673;52.808;17.856;2023-04-24T12:42:43;11.18;;;5.85;;
48853;SDS011;34673;52.808;17.856;2023-04-24T12:45:15;8.30;;;5.85;;
48853;SDS011;34673;52.808;17.856;2023-04-24T12:47:44;7.63;;;5.05;;
48853;SDS011;34673;52.808;17.856;2023-04-24T12:50:13;8.20;;;5.35;;
48853;SDS011;34673;52.808;17.856;2023-04-24T12:52:42;9.30;;;5.05;;
48853;SDS011;34673;52.808;17.856;2023-04-24T12:55:10;8.45;;;4.63;;
48853;SDS011;34673;52.808;17.856;2023-04-24T12:57:39;7.28;;;4.70;;
48853;SDS011;34673;52.808;17.856;2023-04-24T13:00:07;6.57;;;4.72;;
48853;SDS011;34673;52.808;17.856;2023-04-24T13:02:35;7.57;;;4.72;;
48853;SDS011;34673;52.808;17.856;2023-04-24T13:05:03;6.70;;;4.97;;
48853;SDS011;34673;52.808;17.856;2023-04-24T13:07:30;8.25;;;5.00;;
48853;SDS011;34673;52.808;17.856;2023-04-24T13:09:58;7.63;;;4.75;;
48853;SDS011;34673;52.808;17.856;2023-04-24T13:12:25;6.35;;;4.70;;
48853;SDS011;34673;52.808;17.856;2023-04-24T13:14:53;9.07;;;4.90;;
48853;SDS011;34673;52.808;17.856;2023-04-24T13:17:21;5.88;;;4.68;;
48853;SDS011;34673;52.808;17.856;2023-04-24T13:19:49;6.75;;;4.43;;
48853;SDS011;34673;52.808;17.856;2023-04-24T13:22:18;7.25;;;4.30;;
48853;SDS011;34673;52.808;17.856;2023-04-24T13:24:45;6.28;;;4.25;;
48853;SDS011;34673;52.808;17.856;2023-04-24T13:27:15;6.78;;;4.65;;
48853;SDS011;34673;52.808;17.856;2023-04-24T13:29:43;6.00;;;4.90;;
48853;SDS011;34673;52.808;17.856;2023-04-24T13:32:10;7.18;;;4.70;;
48853;SDS011;34673;52.808;17.856;2023-04-24T13:34:38;6.80;;;4.20;;
48853;SDS011;34673;52.808;17.856;2023-04-24T13:37:05;7.25;;;4.60;;
48853;SDS011;34673;52.808;17.856;2023-04-24T13:39:35;6.47;;;3.65;;
48853;SDS011;34673;52.808;17.856;2023-04-24T13:42:02;5.60;;;3.78;;
48853;SDS011;34673;52.808;17.856;2023-04-24T13:44:30;5.82;;;3.75;;
48853;SDS011;34673;52.808;17.856;2023-04-24T13:46:58;6.43;;;3.85;;
48853;SDS011;34673;52.808;17.856;2023-04-24T13:49:25;4.20;;;3.25;;
48853;SDS011;34673;52.808;17.856;2023-04-24T13:51:53;6.38;;;3.35;;
48853;SDS011;34673;52.808;17.856;2023-04-24T13:54:22;4.53;;;2.80;;
48853;SDS011;34673;52.808;17.856;2023-04-24T13:56:52;5.22;;;3.10;;
48853;SDS011;34673;52.808;17.856;2023-04-24T13:59:20;4.25;;;2.95;;
48853;SDS011;34673;52.808;17.856;2023-04-24T14:04:17;4.07;;;3.13;;
48853;SDS011;34673;52.808;17.856;2023-04-24T14:06:44;5.07;;;3.30;;
48853;SDS011;34673;52.808;17.856;2023-04-24T14:09:12;5.00;;;3.08;;
48853;SDS011;34673;52.808;17.856;2023-04-24T14:11:39;7.10;;;3.05;;
48853;SDS011;34673;52.808;17.856;2023-04-24T14:14:07;6.32;;;3.35;;
48853;SDS011;34673;52.808;17.856;2023-04-24T14:16:34;8.10;;;2.92;;
48853;SDS011;34673;52.808;17.856;2023-04-24T14:19:02;5.13;;;3.50;;
48853;SDS011;34673;52.808;17.856;2023-04-24T14:21:29;4.55;;;3.25;;
48853;SDS011;34673;52.808;17.856;2023-04-24T14:23:57;5.30;;;3.70;;
48853;SDS011;34673;52.808;17.856;2023-04-24T14:26:24;5.13;;;3.28;;
48853;SDS011;34673;52.808;17.856;2023-04-24T14:28:51;6.47;;;3.35;;
48853;SDS011;34673;52.808;17.856;2023-04-24T14:31:32;4.50;;;3.28;;
48853;SDS011;34673;52.808;17.856;2023-04-24T14:34:00;5.05;;;3.03;;
48853;SDS011;34673;52.808;17.856;2023-04-24T14:36:27;4.95;;;3.30;;
48853;SDS011;34673;52.808;17.856;2023-04-24T14:38:54;4.90;;;3.30;;
48853;SDS011;34673;52.808;17.856;2023-04-24T14:41:22;7.15;;;3.15;;
48853;SDS011;34673;52.808;17.856;2023-04-24T14:43:49;4.50;;;2.88;;
48853;SDS011;34673;52.808;17.856;2023-04-24T14:46:16;5.72;;;3.13;;
48853;SDS011;34673;52.808;17.856;2023-04-24T14:48:44;5.97;;;3.45;;
48853;SDS011;34673;52.808;17.856;2023-04-24T14:51:11;6.88;;;3.40;;
48853;SDS011;34673;52.808;17.856;2023-04-24T14:53:38;4.78;;;3.33;;
48853;SDS011;34673;52.808;17.856;2023-04-24T14:56:05;5.97;;;3.50;;